createdAt,value
2022-12-19T00:00:15.129Z,94.95
2022-12-19T00:01:14.336Z,94.95
2022-12-19T00:02:14.365Z,94.73
2022-12-19T00:03:14.322Z,94.63
2022-12-19T00:04:14.272Z,94.63
2022-12-19T00:05:14.174Z,94.73
2022-12-19T00:06:14.132Z,94.84
2022-12-19T00:07:14.084Z,94.73
2022-12-19T00:08:17.393Z,94.63
2022-12-19T00:09:14.076Z,94.21
2022-12-19T00:10:14.038Z,94.53
2022-12-19T00:11:13.926Z,94.21
2022-12-19T00:12:18.963Z,94.73
2022-12-19T00:13:13.840Z,94.48
2022-12-19T00:14:13.806Z,94.31
2022-12-19T00:15:13.772Z,94.63
2022-12-19T00:16:13.875Z,94.63
2022-12-19T00:17:13.759Z,94.69
2022-12-19T00:18:13.635Z,94.63
2022-12-19T00:19:13.595Z,94.80
2022-12-19T00:20:13.554Z,94.80
2022-12-19T00:21:13.515Z,94.48
2022-12-19T00:22:13.475Z,93.95
2022-12-19T00:23:13.498Z,94.48
2022-12-19T00:24:20.586Z,94.48
2022-12-19T00:25:19.221Z,94.31
2022-12-19T00:26:13.380Z,94.21
2022-12-19T00:27:13.279Z,93.99
2022-12-19T00:28:13.275Z,94.17
2022-12-19T00:29:14.521Z,94.31
2022-12-19T00:30:13.155Z,94.42
2022-12-19T00:31:13.165Z,94.63
2022-12-19T00:32:13.368Z,94.31
2022-12-19T00:33:13.026Z,93.99
2022-12-19T00:34:13.038Z,94.27
2022-12-19T00:35:12.947Z,94.31
2022-12-19T00:36:12.904Z,94.42
2022-12-19T00:37:12.871Z,94.38
2022-12-19T00:38:12.824Z,94.27
2022-12-19T00:39:12.776Z,94.59
2022-12-19T00:40:12.800Z,94.38
2022-12-19T00:41:12.716Z,94.06
2022-12-19T00:42:12.720Z,94.06
2022-12-19T00:43:12.611Z,93.95
2022-12-19T00:44:12.582Z,94.06
2022-12-19T00:45:12.540Z,94.27
2022-12-19T00:46:12.645Z,94.27
2022-12-19T00:47:12.450Z,94.31
2022-12-19T00:48:12.409Z,94.17
2022-12-19T00:49:12.361Z,94.59
2022-12-19T00:50:12.388Z,94.38
2022-12-19T00:51:12.285Z,94.27
2022-12-19T00:52:12.251Z,94.17
2022-12-19T00:53:12.213Z,94.59
2022-12-19T00:54:12.169Z,93.85
2022-12-19T00:55:18.602Z,94.17
2022-12-19T00:56:12.106Z,94.17
2022-12-19T00:57:12.054Z,94.27
2022-12-19T00:58:12.074Z,93.95
2022-12-19T00:59:11.952Z,93.95
2022-12-19T01:00:11.925Z,94.06
2022-12-19T01:01:12.019Z,94.27
2022-12-19T01:02:11.922Z,93.95
2022-12-19T01:03:11.865Z,94.06
2022-12-19T01:04:28.794Z,93.95
2022-12-19T01:05:11.718Z,93.85
2022-12-19T01:06:11.665Z,93.85
2022-12-19T01:07:11.688Z,93.74
2022-12-19T01:08:11.595Z,93.53
2022-12-19T01:09:11.546Z,93.64
2022-12-19T01:10:11.518Z,93.53
2022-12-19T01:11:11.470Z,93.74
2022-12-19T01:12:11.487Z,93.53
2022-12-19T01:13:11.378Z,93.85
2022-12-19T01:14:11.415Z,93.85
2022-12-19T01:15:11.300Z,93.74
2022-12-19T01:16:11.297Z,93.85
2022-12-19T01:17:11.218Z,93.85
2022-12-19T01:18:11.243Z,93.85
2022-12-19T01:19:11.444Z,93.91
2022-12-19T01:20:11.099Z,94.23
2022-12-19T01:21:11.059Z,94.02
2022-12-19T01:22:11.009Z,94.12
2022-12-19T01:23:10.978Z,94.23
2022-12-19T01:24:10.985Z,93.80
2022-12-19T01:25:10.899Z,93.60
2022-12-19T01:26:10.859Z,93.91
2022-12-19T01:27:10.809Z,93.60
2022-12-19T01:28:10.773Z,94.12
2022-12-19T01:29:10.732Z,93.80
2022-12-19T01:30:10.814Z,93.80
2022-12-19T01:31:10.733Z,93.80
2022-12-19T01:32:10.596Z,93.60
2022-12-19T01:33:10.568Z,93.80
2022-12-19T01:34:10.547Z,93.22
2022-12-19T01:35:20.672Z,93.49
2022-12-19T01:36:10.501Z,93.18
2022-12-19T01:37:10.399Z,93.18
2022-12-19T01:38:10.358Z,93.07
2022-12-19T01:39:10.330Z,93.18
2022-12-19T01:40:10.277Z,93.60
2022-12-19T01:41:10.240Z,93.91
2022-12-19T01:42:10.264Z,93.91
2022-12-19T01:43:10.158Z,93.60
2022-12-19T01:44:10.119Z,93.49
2022-12-19T01:45:13.538Z,93.95
2022-12-19T01:46:10.151Z,94.02
2022-12-19T01:47:09.995Z,93.91
2022-12-19T01:48:10.011Z,93.70
2022-12-19T01:49:10.003Z,93.85
2022-12-19T01:50:09.863Z,93.60
2022-12-19T01:51:09.827Z,93.91
2022-12-19T01:52:11.959Z,93.91
2022-12-19T01:53:09.746Z,93.85
2022-12-19T01:54:09.772Z,93.80
2022-12-19T01:55:09.666Z,94.12
2022-12-19T01:56:09.636Z,94.02
2022-12-19T01:57:09.547Z,93.70
2022-12-19T01:58:09.533Z,94.02
2022-12-19T01:59:09.481Z,94.06
2022-12-19T02:00:09.500Z,94.02
2022-12-19T02:01:09.464Z,93.60
2022-12-19T02:02:09.561Z,93.49
2022-12-19T02:03:09.382Z,93.91
2022-12-19T02:04:09.271Z,93.70
2022-12-19T02:05:09.228Z,93.49
2022-12-19T02:06:09.253Z,93.85
2022-12-19T02:07:15.945Z,93.74
2022-12-19T02:08:09.101Z,94.17
2022-12-19T02:09:09.058Z,94.27
2022-12-19T02:10:09.022Z,93.74
2022-12-19T02:11:08.974Z,94.27
2022-12-19T02:12:09.042Z,93.95
2022-12-19T02:13:08.897Z,94.17
2022-12-19T02:14:08.860Z,94.17
2022-12-19T02:15:08.816Z,94.27
2022-12-19T02:16:08.842Z,93.91
2022-12-19T02:17:08.748Z,93.95
2022-12-19T02:18:08.817Z,94.17
2022-12-19T02:19:08.652Z,94.17
2022-12-19T02:20:08.609Z,94.34
2022-12-19T02:21:08.579Z,94.12
2022-12-19T02:22:08.539Z,94.12
2022-12-19T02:23:09.558Z,94.17
2022-12-19T02:24:08.517Z,94.44
2022-12-19T02:25:08.424Z,94.12
2022-12-19T02:26:08.379Z,93.80
2022-12-19T02:27:08.353Z,94.44
2022-12-19T02:28:08.283Z,94.12
2022-12-19T02:29:08.248Z,93.80
2022-12-19T02:30:08.999Z,94.02
2022-12-19T02:31:16.439Z,93.91
2022-12-19T02:32:08.149Z,94.12
2022-12-19T02:33:08.085Z,94.27
2022-12-19T02:34:08.119Z,94.02
2022-12-19T02:35:08.071Z,93.91
2022-12-19T02:36:07.971Z,94.12
2022-12-19T02:37:07.924Z,94.12
2022-12-19T02:38:09.333Z,94.02
2022-12-19T02:39:07.840Z,94.12
2022-12-19T02:40:07.845Z,94.02
2022-12-19T02:41:07.824Z,94.02
2022-12-19T02:42:07.731Z,94.44
2022-12-19T02:43:07.683Z,94.48
2022-12-19T02:44:07.648Z,94.34
2022-12-19T02:45:07.623Z,93.91
2022-12-19T02:46:07.669Z,94.54
2022-12-19T02:47:07.585Z,94.34
2022-12-19T02:48:09.080Z,94.44
2022-12-19T02:49:07.446Z,94.65
2022-12-19T02:50:07.527Z,94.23
2022-12-19T02:51:07.360Z,93.98
2022-12-19T02:52:07.327Z,94.34
2022-12-19T02:53:07.286Z,94.08
2022-12-19T02:54:07.240Z,94.08
2022-12-19T02:55:07.267Z,94.08
2022-12-19T02:56:10.369Z,94.18
2022-12-19T02:57:07.140Z,93.66
2022-12-19T02:58:07.081Z,93.76
2022-12-19T02:59:07.044Z,93.87
2022-12-19T03:00:07.067Z,94.08
2022-12-19T03:01:07.007Z,93.66
2022-12-19T03:02:07.095Z,92.82
2022-12-19T03:03:07.005Z,93.66
2022-12-19T03:04:06.847Z,93.66
2022-12-19T03:05:06.801Z,94.08
2022-12-19T03:06:06.879Z,93.13
2022-12-19T03:07:06.717Z,93.13
2022-12-19T03:08:06.677Z,93.24
2022-12-19T03:09:06.638Z,92.77
2022-12-19T03:10:06.597Z,92.82
2022-12-19T03:11:06.559Z,93.19
2022-12-19T03:12:06.588Z,92.88
2022-12-19T03:13:06.485Z,93.19
2022-12-19T03:14:06.434Z,93.19
2022-12-19T03:15:06.401Z,93.19
2022-12-19T03:16:06.357Z,92.77
2022-12-19T03:17:06.408Z,93.09
2022-12-19T03:18:06.278Z,93.09
2022-12-19T03:19:06.236Z,92.57
2022-12-19T03:20:06.193Z,92.88
2022-12-19T03:21:06.148Z,93.19
2022-12-19T03:22:06.188Z,92.57
2022-12-19T03:23:06.144Z,92.57
2022-12-19T03:24:06.036Z,93.51
2022-12-19T03:25:05.993Z,93.19
2022-12-19T03:26:05.962Z,92.77
2022-12-19T03:27:05.919Z,92.67
2022-12-19T03:28:05.884Z,92.57
2022-12-19T03:29:05.890Z,92.67
2022-12-19T03:30:05.793Z,92.61
2022-12-19T03:31:05.801Z,93.66
2022-12-19T03:32:05.711Z,93.62
2022-12-19T03:33:05.680Z,93.55
2022-12-19T03:34:05.632Z,93.98
2022-12-19T03:35:05.647Z,93.66
2022-12-19T03:36:05.555Z,93.76
2022-12-19T03:37:05.517Z,93.66
2022-12-19T03:38:05.541Z,93.76
2022-12-19T03:39:05.427Z,93.76
2022-12-19T03:40:05.470Z,93.87
2022-12-19T03:41:05.351Z,93.87
2022-12-19T03:42:05.311Z,93.98
2022-12-19T03:43:05.271Z,94.29
2022-12-19T03:44:05.234Z,93.76
2022-12-19T03:45:05.187Z,93.87
2022-12-19T03:46:05.269Z,93.98
2022-12-19T03:47:05.111Z,93.98
2022-12-19T03:48:05.080Z,93.87
2022-12-19T03:49:05.027Z,93.87
2022-12-19T03:50:04.993Z,93.87
2022-12-19T03:51:04.946Z,93.98
2022-12-19T03:52:04.963Z,93.98
2022-12-19T03:53:04.855Z,93.76
2022-12-19T03:54:04.904Z,93.76
2022-12-19T03:55:04.777Z,93.76
2022-12-19T03:56:04.745Z,93.87
2022-12-19T03:57:04.698Z,93.98
2022-12-19T03:58:04.735Z,93.98
2022-12-19T03:59:04.616Z,93.91
2022-12-19T04:00:04.600Z,93.76
2022-12-19T04:01:04.593Z,93.76
2022-12-19T04:02:04.601Z,93.76
2022-12-19T04:03:04.482Z,93.91
2022-12-19T04:04:04.489Z,93.76
2022-12-19T04:05:04.373Z,93.76
2022-12-19T04:06:04.342Z,93.66
2022-12-19T04:07:04.297Z,93.98
2022-12-19T04:08:04.260Z,93.76
2022-12-19T04:09:04.221Z,93.98
2022-12-19T04:10:04.334Z,93.87
2022-12-19T04:11:04.132Z,94.08
2022-12-19T04:12:04.082Z,94.08
2022-12-19T04:13:04.050Z,93.87
2022-12-19T04:14:04.025Z,94.18
2022-12-19T04:15:03.962Z,94.08
2022-12-19T04:16:04.037Z,93.76
2022-12-19T04:17:03.888Z,94.18
2022-12-19T04:18:03.846Z,94.18
2022-12-19T04:19:03.817Z,94.08
2022-12-19T04:20:03.759Z,93.87
2022-12-19T04:21:03.724Z,94.23
2022-12-19T04:22:03.747Z,94.29
2022-12-19T04:23:03.632Z,93.91
2022-12-19T04:24:03.595Z,94.44
2022-12-19T04:25:03.554Z,94.40
2022-12-19T04:26:03.586Z,94.23
2022-12-19T04:27:03.474Z,93.98
2022-12-19T04:28:03.507Z,94.18
2022-12-19T04:29:03.391Z,94.29
2022-12-19T04:30:03.405Z,94.54
2022-12-19T04:31:03.464Z,94.18
2022-12-19T04:32:03.268Z,94.40
2022-12-19T04:33:03.233Z,94.18
2022-12-19T04:34:03.259Z,94.40
2022-12-19T04:35:03.146Z,94.40
2022-12-19T04:36:03.109Z,94.40
2022-12-19T04:37:03.072Z,94.08
2022-12-19T04:38:03.020Z,94.40
2022-12-19T04:39:02.995Z,94.08
2022-12-19T04:40:03.028Z,94.18
2022-12-19T04:41:02.932Z,94.40
2022-12-19T04:42:02.860Z,94.18
2022-12-19T04:43:02.814Z,94.04
2022-12-19T04:44:02.783Z,93.87
2022-12-19T04:45:02.754Z,94.14
2022-12-19T04:46:02.892Z,94.04
2022-12-19T04:47:02.654Z,94.25
2022-12-19T04:48:02.623Z,94.14
2022-12-19T04:49:02.578Z,94.04
2022-12-19T04:50:02.540Z,93.72
2022-12-19T04:51:02.493Z,93.37
2022-12-19T04:52:02.511Z,93.83
2022-12-19T04:53:02.417Z,93.62
2022-12-19T04:54:02.368Z,92.84
2022-12-19T04:55:02.329Z,93.05
2022-12-19T04:56:02.298Z,93.57
2022-12-19T04:57:02.264Z,92.94
2022-12-19T04:58:02.348Z,93.37
2022-12-19T04:59:02.178Z,93.99
2022-12-19T05:00:02.123Z,93.05
2022-12-19T05:01:02.096Z,92.84
2022-12-19T05:02:02.135Z,93.15
2022-12-19T05:03:02.173Z,92.90
2022-12-19T05:04:04.622Z,92.94
2022-12-19T05:05:01.928Z,92.90
2022-12-19T05:06:01.898Z,93.22
2022-12-19T05:07:01.841Z,93.11
2022-12-19T05:08:01.817Z,93.01
2022-12-19T05:09:01.852Z,93.43
2022-12-19T05:10:01.724Z,92.80
2022-12-19T05:11:01.689Z,92.06
2022-12-19T05:12:01.640Z,92.48
2022-12-19T05:13:01.603Z,93.01
2022-12-19T05:14:01.639Z,92.48
2022-12-19T05:15:01.577Z,92.80
2022-12-19T05:16:01.516Z,93.32
2022-12-19T05:17:01.812Z,92.69
2022-12-19T05:18:01.409Z,92.80
2022-12-19T05:19:01.364Z,92.76
2022-12-19T05:20:01.316Z,92.90
2022-12-19T05:21:01.333Z,92.65
2022-12-19T05:22:01.237Z,92.48
2022-12-19T05:23:04.423Z,92.65
2022-12-19T05:24:01.162Z,92.65
2022-12-19T05:25:01.109Z,92.54
2022-12-19T05:26:01.075Z,92.33
2022-12-19T05:27:01.110Z,92.33
2022-12-19T05:28:01.008Z,91.81
2022-12-19T05:29:00.950Z,92.02
2022-12-19T05:30:01.095Z,92.54
2022-12-19T05:31:00.919Z,92.23
2022-12-19T05:32:00.829Z,92.44
2022-12-19T05:33:00.864Z,92.33
2022-12-19T05:34:00.752Z,92.44
2022-12-19T05:35:00.721Z,92.44
2022-12-19T05:36:00.685Z,92.23
2022-12-19T05:37:00.634Z,91.87
2022-12-19T05:38:00.654Z,92.19
2022-12-19T05:39:00.663Z,91.39
2022-12-19T05:40:00.511Z,91.45
2022-12-19T05:41:00.469Z,91.45
2022-12-19T05:42:00.427Z,92.08
2022-12-19T05:43:00.435Z,92.14
2022-12-19T05:44:00.351Z,91.83
2022-12-19T05:45:00.375Z,90.89
2022-12-19T05:46:00.352Z,91.41
2022-12-19T05:47:00.368Z,91.62
2022-12-19T05:48:01.586Z,91.30
2022-12-19T05:49:00.151Z,91.58
2022-12-19T05:50:00.139Z,90.25
2022-12-19T05:51:00.130Z,90.89
2022-12-19T05:52:00.042Z,91.09
2022-12-19T05:52:59.998Z,89.94
2022-12-19T05:53:59.949Z,89.62
2022-12-19T05:54:59.913Z,89.84
2022-12-19T05:55:59.869Z,89.90
2022-12-19T05:56:59.885Z,89.48
2022-12-19T05:57:59.803Z,89.62
2022-12-19T05:58:59.758Z,89.59
2022-12-19T05:59:59.774Z,90.53
2022-12-19T06:01:00.892Z,90.00
2022-12-19T06:01:59.849Z,89.69
2022-12-19T06:02:59.718Z,89.69
2022-12-19T06:03:59.543Z,89.86
2022-12-19T06:04:59.506Z,90.11
2022-12-19T06:05:59.523Z,89.69
2022-12-19T06:06:59.433Z,89.48
2022-12-19T06:07:59.411Z,89.79
2022-12-19T06:08:59.375Z,89.73
2022-12-19T06:09:59.394Z,89.59
2022-12-19T06:10:59.391Z,90.11
2022-12-19T06:11:59.241Z,89.94
2022-12-19T06:12:59.190Z,90.74
2022-12-19T06:13:59.145Z,90.64
2022-12-19T06:14:59.115Z,90.07
2022-12-19T06:15:59.103Z,89.97
2022-12-19T06:16:59.125Z,89.54
2022-12-19T06:17:59.074Z,89.17
2022-12-19T06:18:58.984Z,88.75
2022-12-19T06:19:58.907Z,89.06
2022-12-19T06:20:58.873Z,89.06
2022-12-19T06:21:58.900Z,89.06
2022-12-19T06:22:58.790Z,89.17
2022-12-19T06:23:58.757Z,89.54
2022-12-19T06:24:58.719Z,89.75
2022-12-19T06:25:58.664Z,89.17
2022-12-19T06:26:58.633Z,89.44
2022-12-19T06:27:58.652Z,89.44
2022-12-19T06:28:58.568Z,89.23
2022-12-19T06:29:58.519Z,89.23
2022-12-19T06:30:58.480Z,88.81
2022-12-19T06:31:58.507Z,89.34
2022-12-19T06:32:58.394Z,89.34
2022-12-19T06:33:58.490Z,89.34
2022-12-19T06:35:05.413Z,88.81
2022-12-19T06:35:58.272Z,88.81
2022-12-19T06:36:58.237Z,88.18
2022-12-19T06:38:01.039Z,88.39
2022-12-19T06:38:58.159Z,88.29
2022-12-19T06:39:58.179Z,87.97
2022-12-19T06:40:58.080Z,89.12
2022-12-19T06:41:58.040Z,88.71
2022-12-19T06:42:57.998Z,88.81
2022-12-19T06:43:57.961Z,88.60
2022-12-19T06:44:57.918Z,88.81
2022-12-19T06:45:58.001Z,88.92
2022-12-19T06:46:57.840Z,88.18
2022-12-19T06:47:57.811Z,88.81
2022-12-19T06:48:57.756Z,88.60
2022-12-19T06:49:57.830Z,88.46
2022-12-19T06:50:57.688Z,88.67
2022-12-19T06:51:57.716Z,88.29
2022-12-19T06:52:57.605Z,88.35
2022-12-19T06:53:57.563Z,88.04
2022-12-19T06:54:57.532Z,88.29
2022-12-19T06:55:57.480Z,88.29
2022-12-19T06:56:57.446Z,87.62
2022-12-19T06:57:57.472Z,87.09
2022-12-19T06:58:57.360Z,86.92
2022-12-19T06:59:57.327Z,88.04
2022-12-19T07:00:57.325Z,87.83
2022-12-19T07:01:57.402Z,88.24
2022-12-19T07:02:57.239Z,87.93
2022-12-19T07:03:57.221Z,88.24
2022-12-19T07:04:57.193Z,88.35
2022-12-19T07:05:57.157Z,88.04
2022-12-19T07:06:57.060Z,88.31
2022-12-19T07:07:57.018Z,87.99
2022-12-19T07:08:56.977Z,88.42
2022-12-19T07:09:56.974Z,88.42
2022-12-19T07:10:56.947Z,88.27
2022-12-19T07:11:56.866Z,88.21
2022-12-19T07:12:56.824Z,87.16
2022-12-19T07:13:56.794Z,86.60
2022-12-19T07:14:56.740Z,86.53
2022-12-19T07:15:56.803Z,87.16
2022-12-19T07:16:56.654Z,86.32
2022-12-19T07:17:56.618Z,87.37
2022-12-19T07:18:56.575Z,86.70
2022-12-19T07:19:56.546Z,86.60
2022-12-19T07:20:56.496Z,86.53
2022-12-19T07:21:56.604Z,86.32
2022-12-19T07:22:56.425Z,86.53
2022-12-19T07:23:56.384Z,86.43
2022-12-19T07:24:56.353Z,86.22
2022-12-19T07:25:56.303Z,86.28
2022-12-19T07:26:56.260Z,86.53
2022-12-19T07:27:56.280Z,86.32
2022-12-19T07:28:56.177Z,86.32
2022-12-19T07:29:56.148Z,86.18
2022-12-19T07:30:56.118Z,86.74
2022-12-19T07:31:56.117Z,86.22
2022-12-19T07:32:56.027Z,86.11
2022-12-19T07:33:56.070Z,86.43
2022-12-19T07:34:55.943Z,86.49
2022-12-19T07:35:55.905Z,86.22
2022-12-19T07:36:55.867Z,86.32
2022-12-19T07:37:55.896Z,85.38
2022-12-19T07:38:55.791Z,86.49
2022-12-19T07:39:55.810Z,86.28
2022-12-19T07:40:55.722Z,86.38
2022-12-19T07:41:55.670Z,86.24
2022-12-19T07:42:55.633Z,86.55
2022-12-19T07:43:55.592Z,84.88
2022-12-19T07:44:55.563Z,84.46
2022-12-19T07:45:55.663Z,84.88
2022-12-19T07:46:55.471Z,84.78
2022-12-19T07:47:55.429Z,84.78
2022-12-19T07:48:55.390Z,84.95
2022-12-19T07:49:55.361Z,84.63
2022-12-19T07:50:55.314Z,85.16
2022-12-19T07:51:55.363Z,84.74
2022-12-19T07:52:55.252Z,84.32
2022-12-19T07:53:55.265Z,84.63
2022-12-19T07:54:55.171Z,83.23
2022-12-19T07:55:55.130Z,83.13
2022-12-19T07:56:55.086Z,83.13
2022-12-19T07:57:55.120Z,82.92
2022-12-19T07:58:55.006Z,83.55
2022-12-19T07:59:54.965Z,83.65
2022-12-19T08:00:54.956Z,82.89
2022-12-19T08:01:55.080Z,81.95
2022-12-19T08:02:54.940Z,81.84
2022-12-19T08:03:55.545Z,81.25
2022-12-19T08:04:54.779Z,82.46
2022-12-19T08:05:54.728Z,82.26
2022-12-19T08:06:54.696Z,81.56
2022-12-19T08:07:54.673Z,81.04
2022-12-19T08:08:54.615Z,80.73
2022-12-19T08:09:54.721Z,81.35
2022-12-19T08:10:54.545Z,81.98
2022-12-19T08:11:54.495Z,81.77
2022-12-19T08:12:54.479Z,80.62
2022-12-19T08:13:54.423Z,80.62
2022-12-19T08:14:57.279Z,81.46
2022-12-19T08:15:54.390Z,81.63
2022-12-19T08:17:19.881Z,81.00
2022-12-19T08:17:54.423Z,81.42
2022-12-19T08:18:54.247Z,81.84
2022-12-19T08:19:54.191Z,80.69
2022-12-19T08:20:54.219Z,80.58
2022-12-19T08:21:54.113Z,80.69
2022-12-19T08:22:54.080Z,80.79
2022-12-19T08:23:54.027Z,80.58
2022-12-19T08:24:54.008Z,80.69
2022-12-19T08:25:54.020Z,80.79
2022-12-19T08:26:53.966Z,81.21
2022-12-19T08:27:53.924Z,80.38
2022-12-19T08:28:53.854Z,80.79
2022-12-19T08:29:53.846Z,80.79
2022-12-19T08:30:53.783Z,80.55
2022-12-19T08:31:53.730Z,80.44
2022-12-19T08:32:53.785Z,80.44
2022-12-19T08:33:53.666Z,80.34
2022-12-19T08:34:53.609Z,80.24
2022-12-19T08:35:53.571Z,79.50
2022-12-19T08:36:53.540Z,80.13
2022-12-19T08:37:53.489Z,80.55
2022-12-19T08:38:53.531Z,79.71
2022-12-19T08:39:53.409Z,79.61
2022-12-19T08:40:53.374Z,79.61
2022-12-19T08:41:53.433Z,79.82
2022-12-19T08:42:53.314Z,79.61
2022-12-19T08:43:53.273Z,79.40
2022-12-19T08:44:53.275Z,79.47
2022-12-19T08:45:53.269Z,79.05
2022-12-19T08:46:53.148Z,79.26
2022-12-19T08:47:53.105Z,79.15
2022-12-19T08:48:53.069Z,78.74
2022-12-19T08:49:53.030Z,78.21
2022-12-19T08:50:53.048Z,78.63
2022-12-19T08:51:52.968Z,78.14
2022-12-19T08:52:52.921Z,79.05
2022-12-19T08:53:52.868Z,78.84
2022-12-19T08:54:52.841Z,79.57
2022-12-19T08:55:52.811Z,79.85
2022-12-19T08:56:52.826Z,79.33
2022-12-19T08:57:52.788Z,78.63
2022-12-19T08:58:52.745Z,78.39
2022-12-19T08:59:52.638Z,79.22
2022-12-19T09:00:57.616Z,78.77
2022-12-19T09:01:52.711Z,78.49
2022-12-19T09:02:52.859Z,78.56
2022-12-19T09:04:42.683Z,79.19
2022-12-19T09:05:59.850Z,77.62
2022-12-19T09:06:00.842Z,77.83
2022-12-19T09:06:52.433Z,78.14
2022-12-19T09:07:52.338Z,77.72
2022-12-19T09:08:52.355Z,77.51
2022-12-19T09:09:52.251Z,77.72
2022-12-19T09:10:52.223Z,77.80
2022-12-19T09:11:52.201Z,78.83
2022-12-19T09:12:57.774Z,78.11
2022-12-19T09:13:52.102Z,77.90
2022-12-19T09:14:52.117Z,77.27
2022-12-19T09:15:52.035Z,76.75
2022-12-19T09:16:52.027Z,76.75
2022-12-19T09:17:51.952Z,77.48
2022-12-19T09:18:51.906Z,77.06
2022-12-19T09:19:51.880Z,76.86
2022-12-19T09:20:51.905Z,77.37
2022-12-19T09:21:51.798Z,77.80
2022-12-19T09:22:51.827Z,77.76
2022-12-19T09:23:51.720Z,77.66
2022-12-19T09:24:51.838Z,77.45
2022-12-19T09:25:51.786Z,77.45
2022-12-19T09:26:51.671Z,76.40
2022-12-19T09:28:25.956Z,76.47
2022-12-19T09:28:51.543Z,77.13
2022-12-19T09:29:51.582Z,76.06
2022-12-19T09:30:51.478Z,77.20
2022-12-19T09:31:55.354Z,76.40
2022-12-19T09:32:51.428Z,75.85
2022-12-19T09:33:51.356Z,76.37
2022-12-19T09:34:51.301Z,76.06
2022-12-19T09:35:51.314Z,76.06
2022-12-19T09:36:51.238Z,76.37
2022-12-19T09:37:56.554Z,76.37
2022-12-19T09:38:51.202Z,75.40
2022-12-19T09:39:51.121Z,75.22
2022-12-19T09:40:51.078Z,75.09
2022-12-19T09:41:51.040Z,75.09
2022-12-19T09:42:50.998Z,75.19
2022-12-19T09:43:50.981Z,75.60
2022-12-19T09:44:50.993Z,74.66
2022-12-19T09:45:51.014Z,75.40
2022-12-19T09:46:50.994Z,75.19
2022-12-19T09:47:50.814Z,74.35
2022-12-19T09:48:54.526Z,75.19
2022-12-19T09:49:50.732Z,75.50
2022-12-19T09:50:50.746Z,75.19
2022-12-19T09:51:50.671Z,75.05
2022-12-19T09:52:50.625Z,75.88
2022-12-19T09:53:54.258Z,74.77
2022-12-19T09:54:50.547Z,74.32
2022-12-19T09:55:50.679Z,74.11
2022-12-19T09:56:50.527Z,74.21
2022-12-19T09:57:50.440Z,74.43
2022-12-19T09:58:50.414Z,74.32
2022-12-19T09:59:50.479Z,74.21
2022-12-19T10:00:55.227Z,74.29
2022-12-19T10:01:50.430Z,74.70
2022-12-19T10:02:50.544Z,74.49
2022-12-19T10:03:50.232Z,73.38
2022-12-19T10:04:51.766Z,74.63
2022-12-19T10:06:51.352Z,74.11
2022-12-19T10:07:18.577Z,74.39
2022-12-19T10:08:07.603Z,74.29
2022-12-19T10:10:37.527Z,74.49
2022-12-19T10:12:33.066Z,73.97
2022-12-19T10:12:36.560Z,74.29
2022-12-19T10:12:43.319Z,74.08
2022-12-19T10:12:51.946Z,73.32
2022-12-19T10:13:50.142Z,73.83
2022-12-19T10:14:49.796Z,73.97
2022-12-19T10:15:58.721Z,73.87
2022-12-19T10:17:08.948Z,73.83
2022-12-19T10:17:49.772Z,74.29
2022-12-19T10:18:54.443Z,73.97
2022-12-19T10:19:49.675Z,73.97
2022-12-19T10:20:49.618Z,73.97
2022-12-19T10:22:16.861Z,74.18
2022-12-19T10:22:49.490Z,74.39
2022-12-19T10:23:50.343Z,74.25
2022-12-19T10:24:59.585Z,74.08
2022-12-19T10:25:49.437Z,73.77
2022-12-19T10:26:49.346Z,74.08
2022-12-19T10:27:59.342Z,73.32
2022-12-19T10:28:49.286Z,73.63
2022-12-19T10:29:49.228Z,74.46
2022-12-19T10:30:49.305Z,73.97
2022-12-19T10:31:53.604Z,74.80
2022-12-19T10:32:49.116Z,74.08
2022-12-19T10:33:49.156Z,75.12
2022-12-19T10:34:49.085Z,75.40
2022-12-19T10:35:49.024Z,75.29
2022-12-19T10:37:25.293Z,74.25
2022-12-19T10:37:49.771Z,75.19
2022-12-19T10:38:51.710Z,75.29
2022-12-19T10:39:48.878Z,74.77
2022-12-19T10:40:48.816Z,74.49
2022-12-19T10:41:48.802Z,75.74
2022-12-19T10:42:48.741Z,75.12
2022-12-19T10:43:48.767Z,75.81
2022-12-19T10:44:48.672Z,75.40
2022-12-19T10:45:48.631Z,75.60
2022-12-19T10:46:48.614Z,76.02
2022-12-19T10:47:48.549Z,75.71
2022-12-19T10:48:48.509Z,75.60
2022-12-19T10:49:48.610Z,75.50
2022-12-19T10:50:48.438Z,75.81
2022-12-19T10:51:48.414Z,75.60
2022-12-19T10:52:48.442Z,75.92
2022-12-19T10:53:48.330Z,76.12
2022-12-19T10:54:48.290Z,75.57
2022-12-19T10:55:48.369Z,75.78
2022-12-19T10:56:48.204Z,75.88
2022-12-19T10:57:48.213Z,75.36
2022-12-19T10:58:48.141Z,76.51
2022-12-19T10:59:48.104Z,76.51
2022-12-19T11:00:48.111Z,76.19
2022-12-19T11:01:51.878Z,75.88
2022-12-19T11:02:48.136Z,76.78
2022-12-19T11:03:47.956Z,77.23
2022-12-19T11:04:47.999Z,76.26
2022-12-19T11:05:47.945Z,77.34
2022-12-19T11:06:47.896Z,77.61
2022-12-19T11:07:47.854Z,77.61
2022-12-19T11:08:47.768Z,77.65
2022-12-19T11:10:03.690Z,78.38
2022-12-19T11:12:27.767Z,79.45
2022-12-19T11:15:22.956Z,79.03
2022-12-19T11:17:08.095Z,80.18
2022-12-19T11:18:41.597Z,80.18
2022-12-19T11:19:47.368Z,80.80
2022-12-19T11:21:29.489Z,80.18
2022-12-19T11:24:16.475Z,81.74
2022-12-19T11:25:58.115Z,81.22
2022-12-19T11:26:11.619Z,81.74
2022-12-19T11:29:26.733Z,82.53
2022-12-19T11:29:30.941Z,82.26
2022-12-19T11:29:35.302Z,83.99
2022-12-19T11:29:38.254Z,82.95
2022-12-19T11:29:42.672Z,82.26
2022-12-19T11:29:54.359Z,82.78
2022-12-19T11:30:05.576Z,83.05
2022-12-19T11:30:09.083Z,82.84
2022-12-19T11:30:37.385Z,82.95
2022-12-19T11:30:47.446Z,82.95
2022-12-19T11:32:14.224Z,83.30
2022-12-19T11:32:47.513Z,84.20
2022-12-19T11:33:46.868Z,83.99
2022-12-19T11:34:46.797Z,83.99
2022-12-19T11:35:46.756Z,84.51
2022-12-19T11:36:46.770Z,84.51
2022-12-19T11:37:46.807Z,84.82
2022-12-19T11:38:46.642Z,85.13
2022-12-19T11:39:46.611Z,85.55
2022-12-19T11:40:49.128Z,85.96
2022-12-19T11:41:46.547Z,85.75
2022-12-19T11:42:46.494Z,85.86
2022-12-19T11:43:47.087Z,85.86
2022-12-19T11:44:46.442Z,86.17
2022-12-19T11:45:46.383Z,86.49
2022-12-19T11:46:46.340Z,87.32
2022-12-19T11:47:46.325Z,87.46
2022-12-19T11:48:46.273Z,88.09
2022-12-19T11:49:46.299Z,88.46
2022-12-19T11:50:46.198Z,88.29
2022-12-19T11:51:46.170Z,88.35
2022-12-19T11:53:46.145Z,88.56
2022-12-19T11:54:46.053Z,89.54
2022-12-19T11:55:46.086Z,89.33
2022-12-19T11:56:45.983Z,90.12
2022-12-19T11:57:45.935Z,90.02
2022-12-19T11:58:45.896Z,90.44
2022-12-19T11:59:45.874Z,90.33
2022-12-19T12:00:45.828Z,90.58
2022-12-19T12:01:45.927Z,91.41
2022-12-19T12:02:45.816Z,91.62
2022-12-19T12:03:54.734Z,91.52
2022-12-19T12:04:45.758Z,91.78
2022-12-19T12:05:45.677Z,91.72
2022-12-19T12:06:46.624Z,91.89
2022-12-19T12:09:52.449Z,92.14
2022-12-19T12:11:13.041Z,92.61
2022-12-19T12:14:57.162Z,92.41
2022-12-19T12:15:40.515Z,92.93
2022-12-19T12:17:48.808Z,93.35
2022-12-19T12:21:17.204Z,93.29
2022-12-19T12:23:33.594Z,93.03
2022-12-19T12:25:04.261Z,93.60
2022-12-19T12:26:19.100Z,93.70
2022-12-19T12:27:01.920Z,93.39
2022-12-19T12:28:40.191Z,94.01
2022-12-19T12:30:53.573Z,94.64
2022-12-19T12:31:14.855Z,95.01
2022-12-19T12:31:22.672Z,94.84
2022-12-19T12:31:40.354Z,95.05
2022-12-19T12:31:42.785Z,95.01
2022-12-19T12:31:43.270Z,94.84
2022-12-19T12:31:49.076Z,95.36
2022-12-19T12:31:51.390Z,95.67
2022-12-19T12:31:51.875Z,94.64
2022-12-19T12:31:53.298Z,95.05
2022-12-19T12:32:06.159Z,94.64
2022-12-19T12:32:06.159Z,95.47
2022-12-19T12:35:16.580Z,96.51
2022-12-19T12:35:33.633Z,96.72
2022-12-19T12:35:38.338Z,96.04
2022-12-19T12:35:51.829Z,96.09
2022-12-19T12:37:49.507Z,96.09
2022-12-19T12:38:44.744Z,96.72
2022-12-19T12:39:44.388Z,96.25
2022-12-19T12:40:44.337Z,96.36
2022-12-19T12:41:44.313Z,97.19
2022-12-19T12:42:44.274Z,97.09
2022-12-19T12:43:44.684Z,96.67
2022-12-19T12:44:46.072Z,97.09
2022-12-19T12:45:45.012Z,96.88
2022-12-19T12:46:44.124Z,96.88
2022-12-19T12:47:44.067Z,96.98
2022-12-19T12:48:44.044Z,96.67
2022-12-19T12:49:44.052Z,96.98
2022-12-19T12:50:43.957Z,97.50
2022-12-19T12:51:43.936Z,97.50
2022-12-19T12:52:43.889Z,97.81
2022-12-19T12:53:43.902Z,97.30
2022-12-19T12:54:43.885Z,97.92
2022-12-19T12:55:43.802Z,97.92
2022-12-19T12:56:43.847Z,97.92
2022-12-19T12:57:43.691Z,98.23